sensor_id;sensor_type;location;lat;lon;timestamp;pressure;altitude;pressure_sealevel;temperature;humidity
5814;BME280;2933;52.302;8.134;2024-02-23T00:02:05;97585.84;;;7.53;69.76
5814;BME280;2933;52.302;8.134;2024-02-23T00:07:07;97603.31;;;7.20;71.39
5814;BME280;2933;52.302;8.134;2024-02-23T00:12:09;97613.97;;;7.04;71.73
5814;BME280;2933;52.302;8.134;2024-02-23T00:17:13;97628.78;;;7.02;72.12
5814;BME280;2933;52.302;8.134;2024-02-23T00:22:21;97668.88;;;6.50;76.93
5814;BME280;2933;52.302;8.134;2024-02-23T00:27:23;97729.75;;;6.12;79.45
5814;BME280;2933;52.302;8.134;2024-02-23T00:32:28;97761.72;;;5.55;78.97
5814;BME280;2933;52.302;8.134;2024-02-23T00:37:31;97774.94;;;5.31;80.22
5814;BME280;2933;52.302;8.134;2024-02-23T00:42:35;97807.84;;;5.26;82.01
5814;BME280;2933;52.302;8.134;2024-02-23T00:47:38;97817.84;;;5.08;80.80
5814;BME280;2933;52.302;8.134;2024-02-23T00:52:41;97840.88;;;5.04;81.83
5814;BME280;2933;52.302;8.134;2024-02-23T00:57:43;97871.47;;;4.90;81.89
5814;BME280;2933;52.302;8.134;2024-02-23T01:02:47;97885.09;;;4.88;82.56
5814;BME280;2933;52.302;8.134;2024-02-23T01:07:49;97901.41;;;4.78;82.77
5814;BME280;2933;52.302;8.134;2024-02-23T01:12:52;97912.84;;;4.70;82.72
5814;BME280;2933;52.302;8.134;2024-02-23T01:17:55;97924.97;;;4.59;82.44
5814;BME280;2933;52.302;8.134;2024-02-23T01:22:57;97937.91;;;4.61;82.82
5814;BME280;2933;52.302;8.134;2024-02-23T01:27:59;97956.66;;;4.64;83.10
5814;BME280;2933;52.302;8.134;2024-02-23T01:33:05;97982.81;;;4.54;83.03
5814;BME280;2933;52.302;8.134;2024-02-23T01:38:46;98001.25;;;4.59;82.44
5814;BME280;2933;52.302;8.134;2024-02-23T01:43:48;98012.34;;;4.52;81.85
5814;BME280;2933;52.302;8.134;2024-02-23T01:49:05;98030.03;;;4.57;82.20
5814;BME280;2933;52.302;8.134;2024-02-23T01:54:16;98016.88;;;4.60;81.15
5814;BME280;2933;52.302;8.134;2024-02-23T01:59:18;98035.47;;;4.69;80.62
5814;BME280;2933;52.302;8.134;2024-02-23T02:04:27;98034.69;;;4.68;80.75
5814;BME280;2933;52.302;8.134;2024-02-23T02:09:37;98045.47;;;4.72;81.00
5814;BME280;2933;52.302;8.134;2024-02-23T02:14:39;98057.81;;;4.76;79.36
5814;BME280;2933;52.302;8.134;2024-02-23T02:19:54;98063.41;;;4.83;79.07
5814;BME280;2933;52.302;8.134;2024-02-23T02:25:01;98065.47;;;4.86;78.67
5814;BME280;2933;52.302;8.134;2024-02-23T02:30:09;98069.72;;;4.70;78.23
5814;BME280;2933;52.302;8.134;2024-02-23T02:35:32;98085.94;;;4.77;79.30
5814;BME280;2933;52.302;8.134;2024-02-23T02:40:38;98079.22;;;4.80;79.39
5814;BME280;2933;52.302;8.134;2024-02-23T02:45:43;98079.88;;;4.77;79.57
5814;BME280;2933;52.302;8.134;2024-02-23T02:50:55;98068.31;;;4.73;79.34
5814;BME280;2933;52.302;8.134;2024-02-23T02:56:13;98083.78;;;4.71;79.11
5814;BME280;2933;52.302;8.134;2024-02-23T03:01:15;98086.88;;;4.81;78.50
5814;BME280;2933;52.302;8.134;2024-02-23T03:06:18;98105.47;;;4.90;79.32
5814;BME280;2933;52.302;8.134;2024-02-23T03:11:21;98104.69;;;4.98;78.12
5814;BME280;2933;52.302;8.134;2024-02-23T03:16:23;98115.94;;;5.03;76.95
5814;BME280;2933;52.302;8.134;2024-02-23T03:21:30;98114.19;;;5.07;76.86
5814;BME280;2933;52.302;8.134;2024-02-23T03:26:47;98125.94;;;5.15;75.98
5814;BME280;2933;52.302;8.134;2024-02-23T03:32:13;98131.56;;;5.13;75.54
5814;BME280;2933;52.302;8.134;2024-02-23T03:37:20;98148.13;;;5.28;74.94
5814;BME280;2933;52.302;8.134;2024-02-23T03:42:23;98141.25;;;5.27;74.21
5814;BME280;2933;52.302;8.134;2024-02-23T03:47:25;98147.03;;;5.29;74.59
5814;BME280;2933;52.302;8.134;2024-02-23T03:52:35;98152.50;;;5.23;73.83
5814;BME280;2933;52.302;8.134;2024-02-23T03:57:41;98161.88;;;5.30;73.17
5814;BME280;2933;52.302;8.134;2024-02-23T04:02:42;98175.19;;;5.30;73.82
5814;BME280;2933;52.302;8.134;2024-02-23T04:07:46;98175.97;;;5.30;72.93
5814;BME280;2933;52.302;8.134;2024-02-23T04:12:49;98177.53;;;5.31;72.54
5814;BME280;2933;52.302;8.134;2024-02-23T04:17:51;98189.28;;;5.30;71.44
5814;BME280;2933;52.302;8.134;2024-02-23T04:22:56;98192.56;;;5.36;70.57
5814;BME280;2933;52.302;8.134;2024-02-23T04:27:58;98193.66;;;5.35;71.06
5814;BME280;2933;52.302;8.134;2024-02-23T04:33:00;98203.19;;;5.36;70.86
5814;BME280;2933;52.302;8.134;2024-02-23T04:38:04;98208.66;;;5.39;70.60
5814;BME280;2933;52.302;8.134;2024-02-23T04:43:06;98224.97;;;5.38;70.64
5814;BME280;2933;52.302;8.134;2024-02-23T04:48:08;98228.41;;;5.38;70.63
5814;BME280;2933;52.302;8.134;2024-02-23T04:53:15;98231.41;;;5.37;71.02
5814;BME280;2933;52.302;8.134;2024-02-23T04:58:17;98230.13;;;5.43;69.92
5814;BME280;2933;52.302;8.134;2024-02-23T05:03:18;98240.78;;;5.43;69.79
5814;BME280;2933;52.302;8.134;2024-02-23T05:08:22;98248.13;;;5.37;70.48
5814;BME280;2933;52.302;8.134;2024-02-23T05:13:25;98268.19;;;5.35;70.38
5814;BME280;2933;52.302;8.134;2024-02-23T05:18:30;98273.34;;;5.40;69.54
5814;BME280;2933;52.302;8.134;2024-02-23T05:23:36;98271.00;;;5.38;70.04
5814;BME280;2933;52.302;8.134;2024-02-23T05:28:39;98282.75;;;5.29;70.65
5814;BME280;2933;52.302;8.134;2024-02-23T05:33:41;98280.56;;;5.31;70.68
5814;BME280;2933;52.302;8.134;2024-02-23T05:38:46;98296.34;;;5.36;70.92
5814;BME280;2933;52.302;8.134;2024-02-23T05:43:48;98292.75;;;5.32;71.03
5814;BME280;2933;52.302;8.134;2024-02-23T05:48:51;98299.66;;;5.33;71.55
5814;BME280;2933;52.302;8.134;2024-02-23T05:53:58;98307.78;;;5.36;71.24
5814;BME280;2933;52.302;8.134;2024-02-23T05:59:00;98311.25;;;5.37;70.10
5814;BME280;2933;52.302;8.134;2024-02-23T06:04:03;98312.94;;;5.41;71.29
5814;BME280;2933;52.302;8.134;2024-02-23T06:09:07;98313.41;;;5.43;71.23
5814;BME280;2933;52.302;8.134;2024-02-23T06:14:09;98319.06;;;5.42;71.46
5814;BME280;2933;52.302;8.134;2024-02-23T06:19:11;98328.44;;;5.39;71.23
5814;BME280;2933;52.302;8.134;2024-02-23T06:24:19;98333.00;;;5.39;71.31
5814;BME280;2933;52.302;8.134;2024-02-23T06:29:21;98336.75;;;5.46;71.41
5814;BME280;2933;52.302;8.134;2024-02-23T06:34:23;98329.09;;;5.45;71.32
5814;BME280;2933;52.302;8.134;2024-02-23T06:39:27;98337.53;;;5.47;71.12
5814;BME280;2933;52.302;8.134;2024-02-23T06:44:30;98339.88;;;5.40;70.40
5814;BME280;2933;52.302;8.134;2024-02-23T06:49:32;98341.94;;;5.43;71.29
5814;BME280;2933;52.302;8.134;2024-02-23T06:54:36;98354.13;;;5.44;71.53
5814;BME280;2933;52.302;8.134;2024-02-23T06:59:40;98363.06;;;5.48;70.72
5814;BME280;2933;52.302;8.134;2024-02-23T07:04:44;98364.31;;;5.50;70.67
5814;BME280;2933;52.302;8.134;2024-02-23T07:09:50;98369.63;;;5.50;70.96
5814;BME280;2933;52.302;8.134;2024-02-23T07:14:53;98362.91;;;5.53;70.46
5814;BME280;2933;52.302;8.134;2024-02-23T07:19:57;98369.00;;;5.45;69.41
5814;BME280;2933;52.302;8.134;2024-02-23T07:25:08;98367.91;;;5.46;70.07
5814;BME280;2933;52.302;8.134;2024-02-23T07:30:11;98373.56;;;5.53;69.12
5814;BME280;2933;52.302;8.134;2024-02-23T07:35:14;98371.50;;;5.50;69.24
5814;BME280;2933;52.302;8.134;2024-02-23T07:40:18;98368.72;;;5.55;69.19
5814;BME280;2933;52.302;8.134;2024-02-23T07:45:22;98371.66;;;5.62;69.44
5814;BME280;2933;52.302;8.134;2024-02-23T07:50:34;98373.53;;;5.70;68.46
5814;BME280;2933;52.302;8.134;2024-02-23T07:55:37;98384.19;;;5.70;68.01
5814;BME280;2933;52.302;8.134;2024-02-23T08:00:39;98390.47;;;5.82;68.15
5814;BME280;2933;52.302;8.134;2024-02-23T08:05:41;98381.19;;;5.97;67.83
5814;BME280;2933;52.302;8.134;2024-02-23T08:10:47;98389.38;;;6.00;67.17
5814;BME280;2933;52.302;8.134;2024-02-23T08:15:49;98392.13;;;6.21;66.87
5814;BME280;2933;52.302;8.134;2024-02-23T08:20:51;98389.59;;;6.25;65.46
5814;BME280;2933;52.302;8.134;2024-02-23T08:25:54;98391.66;;;6.19;66.70
5814;BME280;2933;52.302;8.134;2024-02-23T08:30:56;98379.72;;;6.25;66.36
5814;BME280;2933;52.302;8.134;2024-02-23T08:35:58;98395.69;;;6.42;65.15
5814;BME280;2933;52.302;8.134;2024-02-23T08:41:02;98391.00;;;6.31;65.40
5814;BME280;2933;52.302;8.134;2024-02-23T08:46:04;98393.13;;;6.54;65.88
5814;BME280;2933;52.302;8.134;2024-02-23T08:51:06;98403.19;;;6.49;64.64
5814;BME280;2933;52.302;8.134;2024-02-23T08:56:11;98410.75;;;6.38;64.41
5814;BME280;2933;52.302;8.134;2024-02-23T09:01:13;98411.03;;;6.45;65.49
5814;BME280;2933;52.302;8.134;2024-02-23T09:06:17;98423.25;;;6.46;64.75
5814;BME280;2933;52.302;8.134;2024-02-23T09:11:23;98435.50;;;6.47;63.46
5814;BME280;2933;52.302;8.134;2024-02-23T09:16:25;98423.25;;;6.46;63.00
5814;BME280;2933;52.302;8.134;2024-02-23T09:21:28;98422.78;;;6.53;62.95
5814;BME280;2933;52.302;8.134;2024-02-23T09:26:32;98421.22;;;6.52;62.21
5814;BME280;2933;52.302;8.134;2024-02-23T09:31:37;98443.50;;;6.56;63.46
5814;BME280;2933;52.302;8.134;2024-02-23T09:36:39;98452.44;;;6.51;63.02
5814;BME280;2933;52.302;8.134;2024-02-23T09:41:45;98451.03;;;6.54;63.67
5814;BME280;2933;52.302;8.134;2024-02-23T09:46:48;98454.78;;;6.53;63.30
5814;BME280;2933;52.302;8.134;2024-02-23T09:51:51;98450.50;;;6.60;63.01
5814;BME280;2933;52.302;8.134;2024-02-23T09:57:06;98452.09;;;6.61;63.29
5814;BME280;2933;52.302;8.134;2024-02-23T10:02:15;98441.50;;;6.82;63.72
5814;BME280;2933;52.302;8.134;2024-02-23T10:07:17;98447.25;;;6.92;62.74
5814;BME280;2933;52.302;8.134;2024-02-23T10:12:22;98454.53;;;6.83;61.86
5814;BME280;2933;52.302;8.134;2024-02-23T10:17:31;98461.75;;;6.83;62.32
5814;BME280;2933;52.302;8.134;2024-02-23T10:22:35;98466.94;;;6.79;61.99
5814;BME280;2933;52.302;8.134;2024-02-23T10:27:43;98461.47;;;6.76;62.26
5814;BME280;2933;52.302;8.134;2024-02-23T10:32:45;98470.06;;;6.81;62.68
5814;BME280;2933;52.302;8.134;2024-02-23T10:37:48;98471.31;;;6.84;62.35
5814;BME280;2933;52.302;8.134;2024-02-23T10:42:56;98478.06;;;6.81;61.08
5814;BME280;2933;52.302;8.134;2024-02-23T10:48:00;98468.66;;;6.84;61.45
5814;BME280;2933;52.302;8.134;2024-02-23T10:53:04;98492.16;;;6.90;61.25
5814;BME280;2933;52.302;8.134;2024-02-23T10:58:09;98487.59;;;6.91;61.65
5814;BME280;2933;52.302;8.134;2024-02-23T11:03:16;98487.13;;;6.97;60.72
5814;BME280;2933;52.302;8.134;2024-02-23T11:08:21;98476.59;;;7.01;60.86
5814;BME280;2933;52.302;8.134;2024-02-23T11:13:42;98474.50;;;7.07;61.10
5814;BME280;2933;52.302;8.134;2024-02-23T11:18:46;98478.56;;;7.13;60.52
5814;BME280;2933;52.302;8.134;2024-02-23T11:23:48;98478.88;;;7.20;60.30
5814;BME280;2933;52.302;8.134;2024-02-23T11:28:56;98485.50;;;7.14;60.12
5814;BME280;2933;52.302;8.134;2024-02-23T11:34:00;98474.16;;;7.17;60.50
5814;BME280;2933;52.302;8.134;2024-02-23T11:39:02;98476.81;;;7.17;60.84
5814;BME280;2933;52.302;8.134;2024-02-23T11:44:05;98476.38;;;7.15;60.00
5814;BME280;2933;52.302;8.134;2024-02-23T11:49:07;98476.47;;;7.27;60.13
5814;BME280;2933;52.302;8.134;2024-02-23T11:54:11;98482.41;;;7.32;59.70
5814;BME280;2933;52.302;8.134;2024-02-23T11:59:15;98478.09;;;7.40;59.72
5814;BME280;2933;52.302;8.134;2024-02-23T12:04:17;98467.50;;;7.52;58.24
5814;BME280;2933;52.302;8.134;2024-02-23T12:09:19;98472.28;;;7.67;57.94
5814;BME280;2933;52.302;8.134;2024-02-23T12:14:22;98460.94;;;7.91;57.79
5814;BME280;2933;52.302;8.134;2024-02-23T12:19:24;98474.22;;;8.20;57.52
5814;BME280;2933;52.302;8.134;2024-02-23T12:24:26;98464.97;;;8.83;55.43
5814;BME280;2933;52.302;8.134;2024-02-23T12:29:30;98472.06;;;8.66;56.12
5814;BME280;2933;52.302;8.134;2024-02-23T12:34:31;98470.84;;;8.76;56.62
5814;BME280;2933;52.302;8.134;2024-02-23T12:39:33;98468.53;;;9.11;53.62
5814;BME280;2933;52.302;8.134;2024-02-23T12:44:39;98468.31;;;8.92;54.95
5814;BME280;2933;52.302;8.134;2024-02-23T12:49:41;98465.91;;;8.66;55.55
5814;BME280;2933;52.302;8.134;2024-02-23T12:54:43;98487.13;;;8.38;55.96
5814;BME280;2933;52.302;8.134;2024-02-23T12:59:54;98486.03;;;7.98;56.98
5814;BME280;2933;52.302;8.134;2024-02-23T13:05:06;98497.91;;;7.89;58.58
5814;BME280;2933;52.302;8.134;2024-02-23T13:10:11;98502.06;;;7.77;60.12
5814;BME280;2933;52.302;8.134;2024-02-23T13:15:17;98493.75;;;7.79;60.50
5814;BME280;2933;52.302;8.134;2024-02-23T13:20:20;98495.56;;;7.87;61.17
5814;BME280;2933;52.302;8.134;2024-02-23T13:25:22;98487.00;;;7.94;60.62
5814;BME280;2933;52.302;8.134;2024-02-23T13:30:28;98499.41;;;7.98;60.87
5814;BME280;2933;52.302;8.134;2024-02-23T13:35:30;98497.56;;;7.90;61.36
5814;BME280;2933;52.302;8.134;2024-02-23T13:40:37;98497.38;;;7.74;63.08
5814;BME280;2933;52.302;8.134;2024-02-23T13:45:50;98491.03;;;7.58;64.04
5814;BME280;2933;52.302;8.134;2024-02-23T13:50:56;98512.19;;;7.43;64.92
5814;BME280;2933;52.302;8.134;2024-02-23T13:56:09;98510.25;;;7.52;65.13
5814;BME280;2933;52.302;8.134;2024-02-23T14:01:19;98509.16;;;7.53;65.58
5814;BME280;2933;52.302;8.134;2024-02-23T14:06:21;98524.88;;;7.46;66.06
5814;BME280;2933;52.302;8.134;2024-02-23T14:11:23;98550.97;;;7.49;68.13
5814;BME280;2933;52.302;8.134;2024-02-23T14:16:26;98531.16;;;7.50;70.67
5814;BME280;2933;52.302;8.134;2024-02-23T14:21:29;98539.44;;;7.57;70.29
5814;BME280;2933;52.302;8.134;2024-02-23T14:26:32;98542.28;;;7.52;68.76
5814;BME280;2933;52.302;8.134;2024-02-23T14:31:35;98554.72;;;7.48;68.64
5814;BME280;2933;52.302;8.134;2024-02-23T14:36:37;98559.81;;;7.41;68.91
5814;BME280;2933;52.302;8.134;2024-02-23T14:41:39;98551.44;;;7.51;69.23
5814;BME280;2933;52.302;8.134;2024-02-23T14:46:43;98545.63;;;7.49;67.46
5814;BME280;2933;52.302;8.134;2024-02-23T14:51:45;98563.84;;;7.47;68.60
5814;BME280;2933;52.302;8.134;2024-02-23T14:56:49;98558.22;;;7.40;70.22
5814;BME280;2933;52.302;8.134;2024-02-23T15:01:52;98559.59;;;7.46;70.88
5814;BME280;2933;52.302;8.134;2024-02-23T15:06:54;98545.16;;;7.47;70.98
5814;BME280;2933;52.302;8.134;2024-02-23T15:11:56;98543.59;;;7.46;69.95
5814;BME280;2933;52.302;8.134;2024-02-23T15:16:59;98544.69;;;7.45;68.25
5814;BME280;2933;52.302;8.134;2024-02-23T15:22:02;98540.16;;;7.45;65.45
5814;BME280;2933;52.302;8.134;2024-02-23T15:27:06;98563.56;;;7.40;65.72
5814;BME280;2933;52.302;8.134;2024-02-23T15:32:10;98569.25;;;7.30;67.16
5814;BME280;2933;52.302;8.134;2024-02-23T15:37:13;98568.25;;;7.14;68.15
5814;BME280;2933;52.302;8.134;2024-02-23T15:42:16;98577.84;;;6.97;68.72
5814;BME280;2933;52.302;8.134;2024-02-23T15:47:22;98580.69;;;6.92;70.88
5814;BME280;2933;52.302;8.134;2024-02-23T15:52:25;98580.69;;;6.92;70.85
5814;BME280;2933;52.302;8.134;2024-02-23T15:57:27;98574.72;;;6.95;71.66
5814;BME280;2933;52.302;8.134;2024-02-23T16:02:31;98582.88;;;6.90;71.67
5814;BME280;2933;52.302;8.134;2024-02-23T16:07:33;98580.25;;;6.82;71.60
5814;BME280;2933;52.302;8.134;2024-02-23T16:12:35;98593.88;;;6.80;71.80
5814;BME280;2933;52.302;8.134;2024-02-23T16:17:39;98596.56;;;6.80;72.24
5814;BME280;2933;52.302;8.134;2024-02-23T16:22:42;98594.81;;;6.84;70.69
5814;BME280;2933;52.302;8.134;2024-02-23T16:27:44;98592.63;;;6.86;71.70
5814;BME280;2933;52.302;8.134;2024-02-23T16:32:48;98598.44;;;6.88;71.05
5814;BME280;2933;52.302;8.134;2024-02-23T16:37:50;98607.22;;;6.89;70.84
5814;BME280;2933;52.302;8.134;2024-02-23T16:42:52;98604.88;;;6.87;71.55
5814;BME280;2933;52.302;8.134;2024-02-23T16:47:55;98620.88;;;6.87;71.02
5814;BME280;2933;52.302;8.134;2024-02-23T16:52:57;98623.09;;;6.85;70.01
5814;BME280;2933;52.302;8.134;2024-02-23T16:57:59;98617.94;;;6.72;69.35
5814;BME280;2933;52.302;8.134;2024-02-23T17:03:03;98627.00;;;6.62;68.91
5814;BME280;2933;52.302;8.134;2024-02-23T17:08:06;98626.72;;;6.55;68.37
5814;BME280;2933;52.302;8.134;2024-02-23T17:13:08;98631.88;;;6.43;68.83
5814;BME280;2933;52.302;8.134;2024-02-23T17:18:11;98641.28;;;6.49;68.99
5814;BME280;2933;52.302;8.134;2024-02-23T17:23:12;98646.94;;;6.39;69.90
5814;BME280;2933;52.302;8.134;2024-02-23T17:28:16;98649.91;;;6.55;69.84
5814;BME280;2933;52.302;8.134;2024-02-23T17:33:21;98648.19;;;6.50;70.13
5814;BME280;2933;52.302;8.134;2024-02-23T17:38:23;98664.53;;;6.57;70.03
5814;BME280;2933;52.302;8.134;2024-02-23T17:43:25;98676.75;;;6.58;70.14
5814;BME280;2933;52.302;8.134;2024-02-23T17:48:28;98676.28;;;6.65;70.32
5814;BME280;2933;52.302;8.134;2024-02-23T17:53:30;98679.28;;;6.63;70.30
5814;BME280;2933;52.302;8.134;2024-02-23T17:58:31;98678.16;;;6.64;70.46
5814;BME280;2933;52.302;8.134;2024-02-23T18:03:37;98679.88;;;6.60;71.76
5814;BME280;2933;52.302;8.134;2024-02-23T18:08:39;98684.44;;;6.60;71.52
5814;BME280;2933;52.302;8.134;2024-02-23T18:13:41;98686.03;;;6.69;71.10
5814;BME280;2933;52.302;8.134;2024-02-23T18:18:45;98698.72;;;6.64;71.14
5814;BME280;2933;52.302;8.134;2024-02-23T18:23:48;98713.47;;;6.61;72.00
5814;BME280;2933;52.302;8.134;2024-02-23T18:28:50;98716.13;;;6.61;74.25
5814;BME280;2933;52.302;8.134;2024-02-23T18:34:09;98704.31;;;6.37;77.32
5814;BME280;2933;52.302;8.134;2024-02-23T18:39:15;98698.34;;;6.31;77.03
5814;BME280;2933;52.302;8.134;2024-02-23T18:44:17;98707.09;;;6.06;79.60
5814;BME280;2933;52.302;8.134;2024-02-23T18:49:20;98704.72;;;5.74;81.62
5814;BME280;2933;52.302;8.134;2024-02-23T18:54:22;98703.88;;;5.56;83.64
5814;BME280;2933;52.302;8.134;2024-02-23T18:59:24;98701.50;;;5.55;83.07
5814;BME280;2933;52.302;8.134;2024-02-23T19:04:30;98708.06;;;5.49;83.68
5814;BME280;2933;52.302;8.134;2024-02-23T19:09:33;98712.28;;;5.50;83.71
5814;BME280;2933;52.302;8.134;2024-02-23T19:14:36;98719.72;;;5.39;85.24
5814;BME280;2933;52.302;8.134;2024-02-23T19:19:39;98709.13;;;5.48;84.35
5814;BME280;2933;52.302;8.134;2024-02-23T19:24:41;98711.97;;;5.51;84.43
5814;BME280;2933;52.302;8.134;2024-02-23T19:29:43;98727.19;;;5.51;84.23
5814;BME280;2933;52.302;8.134;2024-02-23T19:35:01;98731.53;;;5.47;85.14
5814;BME280;2933;52.302;8.134;2024-02-23T19:40:04;98718.88;;;5.52;84.72
5814;BME280;2933;52.302;8.134;2024-02-23T19:45:25;98721.31;;;5.40;83.68
5814;BME280;2933;52.302;8.134;2024-02-23T19:50:48;98718.34;;;5.42;83.38
5814;BME280;2933;52.302;8.134;2024-02-23T19:55:50;98718.75;;;5.57;80.82
5814;BME280;2933;52.302;8.134;2024-02-23T20:00:52;98720.09;;;5.46;80.97
5814;BME280;2933;52.302;8.134;2024-02-23T20:05:55;98730.56;;;5.43;81.13
5814;BME280;2933;52.302;8.134;2024-02-23T20:10:57;98726.47;;;5.37;81.55
5814;BME280;2933;52.302;8.134;2024-02-23T20:16:00;98723.50;;;5.38;78.61
5814;BME280;2933;52.302;8.134;2024-02-23T20:21:35;98731.53;;;5.47;78.23
5814;BME280;2933;52.302;8.134;2024-02-23T20:26:41;98730.31;;;5.53;78.07
5814;BME280;2933;52.302;8.134;2024-02-23T20:31:48;98739.34;;;5.74;76.74
5814;BME280;2933;52.302;8.134;2024-02-23T20:36:51;98735.84;;;5.87;75.98
5814;BME280;2933;52.302;8.134;2024-02-23T20:41:54;98734.84;;;5.83;76.30
5814;BME280;2933;52.302;8.134;2024-02-23T20:47:01;98742.13;;;5.91;74.49
5814;BME280;2933;52.302;8.134;2024-02-23T20:52:11;98745.47;;;6.05;73.27
5814;BME280;2933;52.302;8.134;2024-02-23T20:57:27;98747.31;;;5.96;73.93
5814;BME280;2933;52.302;8.134;2024-02-23T21:02:42;98744.44;;;5.84;74.68
5814;BME280;2933;52.302;8.134;2024-02-23T21:07:45;98742.97;;;5.78;75.25
5814;BME280;2933;52.302;8.134;2024-02-23T21:12:48;98735.16;;;5.81;74.11
5814;BME280;2933;52.302;8.134;2024-02-23T21:17:49;98736.06;;;5.77;75.07
5814;BME280;2933;52.302;8.134;2024-02-23T21:22:53;98739.91;;;5.84;75.08
5814;BME280;2933;52.302;8.134;2024-02-23T21:27:54;98747.16;;;5.92;72.94
5814;BME280;2933;52.302;8.134;2024-02-23T21:33:04;98739.16;;;5.92;74.12
5814;BME280;2933;52.302;8.134;2024-02-23T21:38:13;98742.44;;;5.89;73.18
5814;BME280;2933;52.302;8.134;2024-02-23T21:43:19;98738.09;;;6.02;71.97
5814;BME280;2933;52.302;8.134;2024-02-23T21:48:25;98738.50;;;5.87;72.38
5814;BME280;2933;52.302;8.134;2024-02-23T21:53:31;98730.34;;;5.83;71.04
5814;BME280;2933;52.302;8.134;2024-02-23T21:58:38;98725.41;;;5.77;71.14
5814;BME280;2933;52.302;8.134;2024-02-23T22:03:39;98727.06;;;5.86;69.60
5814;BME280;2933;52.302;8.134;2024-02-23T22:08:42;98739.22;;;5.79;69.98
5814;BME280;2933;52.302;8.134;2024-02-23T22:13:47;98756.78;;;5.80;69.90
5814;BME280;2933;52.302;8.134;2024-02-23T22:18:50;98754.22;;;5.75;69.46
5814;BME280;2933;52.302;8.134;2024-02-23T22:23:54;98759.38;;;5.71;70.28
5814;BME280;2933;52.302;8.134;2024-02-23T22:28:56;98759.22;;;5.68;70.10
5814;BME280;2933;52.302;8.134;2024-02-23T22:33:57;98757.03;;;5.70;69.92
5814;BME280;2933;52.302;8.134;2024-02-23T22:39:00;98753.41;;;5.66;70.52
5814;BME280;2933;52.302;8.134;2024-02-23T22:44:02;98754.47;;;5.56;70.03
5814;BME280;2933;52.302;8.134;2024-02-23T22:49:04;98748.91;;;5.44;70.81
5814;BME280;2933;52.302;8.134;2024-02-23T22:54:08;98755.25;;;5.35;71.72
5814;BME280;2933;52.302;8.134;2024-02-23T22:59:10;98753.09;;;5.37;71.51
5814;BME280;2933;52.302;8.134;2024-02-23T23:04:13;98749.63;;;5.14;72.63
5814;BME280;2933;52.302;8.134;2024-02-23T23:09:19;98738.88;;;4.83;74.21
5814;BME280;2933;52.302;8.134;2024-02-23T23:14:21;98744.66;;;4.63;75.31
5814;BME280;2933;52.302;8.134;2024-02-23T23:19:24;98735.44;;;4.47;76.43
5814;BME280;2933;52.302;8.134;2024-02-23T23:24:32;98744.13;;;4.25;77.36
5814;BME280;2933;52.302;8.134;2024-02-23T23:29:34;98749.72;;;3.97;77.94
5814;BME280;2933;52.302;8.134;2024-02-23T23:34:36;98752.75;;;4.04;77.65
5814;BME280;2933;52.302;8.134;2024-02-23T23:39:40;98764.19;;;4.04;78.38
5814;BME280;2933;52.302;8.134;2024-02-23T23:44:42;98773.81;;;4.00;78.63
5814;BME280;2933;52.302;8.134;2024-02-23T23:49:43;98771.25;;;3.82;78.80
5814;BME280;2933;52.302;8.134;2024-02-23T23:54:47;98771.25;;;3.95;78.77
5814;BME280;2933;52.302;8.134;2024-02-23T23:59:49;98777.72;;;3.76;79.87
